sensor_id;sensor_type;location;lat;lon;timestamp;temperature;humidity
68139;DHT22;54940;50.842;4.410;2022-09-09T00:04:33;16.80;99.90
68139;DHT22;54940;50.842;4.410;2022-09-09T00:07:04;16.70;99.90
68139;DHT22;54940;50.842;4.410;2022-09-09T00:09:39;16.60;99.90
68139;DHT22;54940;50.842;4.410;2022-09-09T00:12:41;16.40;99.90
68139;DHT22;54940;50.842;4.410;2022-09-09T00:15:18;16.40;99.90
68139;DHT22;54940;50.842;4.410;2022-09-09T00:20:45;16.30;99.90
68139;DHT22;54940;50.842;4.410;2022-09-09T00:23:31;16.20;99.90
68139;DHT22;54940;50.842;4.410;2022-09-09T00:31:34;15.90;99.90
68139;DHT22;54940;50.842;4.410;2022-09-09T00:34:14;15.90;99.90
68139;DHT22;54940;50.842;4.410;2022-09-09T00:36:41;15.90;99.90
68139;DHT22;54940;50.842;4.410;2022-09-09T00:39:39;15.90;99.90
68139;DHT22;54940;50.842;4.410;2022-09-09T00:42:19;15.90;99.90
68139;DHT22;54940;50.842;4.410;2022-09-09T00:44:58;15.90;99.90
68139;DHT22;54940;50.842;4.410;2022-09-09T00:52:57;15.80;99.90
68139;DHT22;54940;50.842;4.410;2022-09-09T00:55:33;15.70;99.90
68139;DHT22;54940;50.842;4.410;2022-09-09T00:58:02;15.70;99.90
68139;DHT22;54940;50.842;4.410;2022-09-09T01:00:30;15.70;99.90
68139;DHT22;54940;50.842;4.410;2022-09-09T01:09:01;15.80;99.90
68139;DHT22;54940;50.842;4.410;2022-09-09T01:17:28;15.90;99.90
68139;DHT22;54940;50.842;4.410;2022-09-09T01:20:04;15.90;99.90
68139;DHT22;54940;50.842;4.410;2022-09-09T01:22:44;15.90;99.90
68139;DHT22;54940;50.842;4.410;2022-09-09T01:28:17;16.00;99.90
68139;DHT22;54940;50.842;4.410;2022-09-09T01:30:44;15.90;99.90
68139;DHT22;54940;50.842;4.410;2022-09-09T01:33:14;15.80;99.90
68139;DHT22;54940;50.842;4.410;2022-09-09T01:35:50;15.80;99.90
68139;DHT22;54940;50.842;4.410;2022-09-09T01:38:20;15.80;99.90
68139;DHT22;54940;50.842;4.410;2022-09-09T01:40:46;15.80;99.90
68139;DHT22;54940;50.842;4.410;2022-09-09T01:43:13;15.80;99.90
68139;DHT22;54940;50.842;4.410;2022-09-09T01:45:39;15.80;99.90
68139;DHT22;54940;50.842;4.410;2022-09-09T01:48:06;15.80;99.90
68139;DHT22;54940;50.842;4.410;2022-09-09T01:50:32;15.80;99.90
68139;DHT22;54940;50.842;4.410;2022-09-09T01:52:59;15.80;99.90
68139;DHT22;54940;50.842;4.410;2022-09-09T01:55:39;15.80;99.90
68139;DHT22;54940;50.842;4.410;2022-09-09T01:58:31;15.80;99.90
68139;DHT22;54940;50.842;4.410;2022-09-09T02:03:35;15.70;99.90
68139;DHT22;54940;50.842;4.410;2022-09-09T02:08:57;15.60;99.90
68139;DHT22;54940;50.842;4.410;2022-09-09T02:11:27;15.70;99.90
68139;DHT22;54940;50.842;4.410;2022-09-09T02:13:57;15.70;99.90
68139;DHT22;54940;50.842;4.410;2022-09-09T02:16:32;15.70;99.90
68139;DHT22;54940;50.842;4.410;2022-09-09T02:21:43;15.70;99.90
68139;DHT22;54940;50.842;4.410;2022-09-09T02:24:11;15.60;99.90
68139;DHT22;54940;50.842;4.410;2022-09-09T02:26:41;15.70;99.90
68139;DHT22;54940;50.842;4.410;2022-09-09T02:29:21;15.60;99.90
68139;DHT22;54940;50.842;4.410;2022-09-09T02:31:49;15.60;99.90
68139;DHT22;54940;50.842;4.410;2022-09-09T02:34:19;15.60;99.90
68139;DHT22;54940;50.842;4.410;2022-09-09T02:36:46;15.50;99.90
68139;DHT22;54940;50.842;4.410;2022-09-09T02:39:13;15.50;99.90
68139;DHT22;54940;50.842;4.410;2022-09-09T02:41:40;15.50;99.90
68139;DHT22;54940;50.842;4.410;2022-09-09T02:44:14;15.60;99.90
68139;DHT22;54940;50.842;4.410;2022-09-09T02:50:15;15.60;99.90
68139;DHT22;54940;50.842;4.410;2022-09-09T02:55:47;15.60;99.90
68139;DHT22;54940;50.842;4.410;2022-09-09T02:58:16;15.60;99.90
68139;DHT22;54940;50.842;4.410;2022-09-09T03:00:49;15.60;99.90
68139;DHT22;54940;50.842;4.410;2022-09-09T03:03:16;15.50;99.90
68139;DHT22;54940;50.842;4.410;2022-09-09T03:05:43;15.50;99.90
68139;DHT22;54940;50.842;4.410;2022-09-09T03:08:10;15.50;99.90
68139;DHT22;54940;50.842;4.410;2022-09-09T03:10:36;15.50;99.90
68139;DHT22;54940;50.842;4.410;2022-09-09T03:13:03;15.40;99.90
68139;DHT22;54940;50.842;4.410;2022-09-09T03:15:32;15.40;99.90
68139;DHT22;54940;50.842;4.410;2022-09-09T03:17:58;15.40;99.90
68139;DHT22;54940;50.842;4.410;2022-09-09T03:20:28;15.40;99.90
68139;DHT22;54940;50.842;4.410;2022-09-09T03:22:55;15.50;99.90
68139;DHT22;54940;50.842;4.410;2022-09-09T03:25:21;15.50;99.90
68139;DHT22;54940;50.842;4.410;2022-09-09T03:27:49;15.40;99.90
68139;DHT22;54940;50.842;4.410;2022-09-09T03:30:15;15.50;99.90
68139;DHT22;54940;50.842;4.410;2022-09-09T03:32:41;15.50;99.90
68139;DHT22;54940;50.842;4.410;2022-09-09T03:35:07;15.60;99.90
68139;DHT22;54940;50.842;4.410;2022-09-09T03:37:33;15.50;99.90
68139;DHT22;54940;50.842;4.410;2022-09-09T03:39:59;15.50;99.90
68139;DHT22;54940;50.842;4.410;2022-09-09T03:42:25;15.40;99.90
68139;DHT22;54940;50.842;4.410;2022-09-09T03:44:51;15.40;99.90
68139;DHT22;54940;50.842;4.410;2022-09-09T03:47:18;15.40;99.90
68139;DHT22;54940;50.842;4.410;2022-09-09T03:49:43;15.40;99.90
68139;DHT22;54940;50.842;4.410;2022-09-09T03:52:09;15.30;99.90
68139;DHT22;54940;50.842;4.410;2022-09-09T03:54:35;15.40;99.90
68139;DHT22;54940;50.842;4.410;2022-09-09T03:57:01;15.30;99.90
68139;DHT22;54940;50.842;4.410;2022-09-09T03:59:27;15.40;99.90
68139;DHT22;54940;50.842;4.410;2022-09-09T04:01:53;15.40;99.90
68139;DHT22;54940;50.842;4.410;2022-09-09T04:04:18;15.40;99.90
68139;DHT22;54940;50.842;4.410;2022-09-09T04:06:45;15.30;99.90
68139;DHT22;54940;50.842;4.410;2022-09-09T04:09:11;15.40;99.90
68139;DHT22;54940;50.842;4.410;2022-09-09T04:11:37;15.50;99.90
68139;DHT22;54940;50.842;4.410;2022-09-09T04:14:03;15.50;99.90
68139;DHT22;54940;50.842;4.410;2022-09-09T04:16:31;15.50;99.90
68139;DHT22;54940;50.842;4.410;2022-09-09T04:18:58;15.50;99.90
68139;DHT22;54940;50.842;4.410;2022-09-09T04:21:23;15.40;99.90
68139;DHT22;54940;50.842;4.410;2022-09-09T04:23:49;15.40;99.90
68139;DHT22;54940;50.842;4.410;2022-09-09T04:26:14;15.40;99.90
68139;DHT22;54940;50.842;4.410;2022-09-09T04:28:40;15.40;99.90
68139;DHT22;54940;50.842;4.410;2022-09-09T04:31:18;15.50;99.90
68139;DHT22;54940;50.842;4.410;2022-09-09T04:33:45;15.50;99.90
68139;DHT22;54940;50.842;4.410;2022-09-09T04:36:12;15.40;99.90
68139;DHT22;54940;50.842;4.410;2022-09-09T04:38:38;15.50;99.90
68139;DHT22;54940;50.842;4.410;2022-09-09T04:41:04;15.40;99.90
68139;DHT22;54940;50.842;4.410;2022-09-09T04:43:30;15.30;99.90
68139;DHT22;54940;50.842;4.410;2022-09-09T04:45:56;15.30;99.90
68139;DHT22;54940;50.842;4.410;2022-09-09T04:48:22;15.30;99.90
68139;DHT22;54940;50.842;4.410;2022-09-09T04:51:13;15.30;99.90
68139;DHT22;54940;50.842;4.410;2022-09-09T04:53:39;15.40;99.90
68139;DHT22;54940;50.842;4.410;2022-09-09T04:56:14;15.30;99.90
68139;DHT22;54940;50.842;4.410;2022-09-09T04:58:40;15.30;99.90
68139;DHT22;54940;50.842;4.410;2022-09-09T05:01:17;15.30;99.90
68139;DHT22;54940;50.842;4.410;2022-09-09T05:03:43;15.20;99.90
68139;DHT22;54940;50.842;4.410;2022-09-09T05:06:15;15.30;99.90
68139;DHT22;54940;50.842;4.410;2022-09-09T05:08:42;15.30;99.90
68139;DHT22;54940;50.842;4.410;2022-09-09T05:11:18;15.30;99.90
68139;DHT22;54940;50.842;4.410;2022-09-09T05:13:45;15.30;99.90
68139;DHT22;54940;50.842;4.410;2022-09-09T05:16:11;15.30;99.90
68139;DHT22;54940;50.842;4.410;2022-09-09T05:18:40;15.30;99.90
68139;DHT22;54940;50.842;4.410;2022-09-09T05:21:08;15.30;99.90
68139;DHT22;54940;50.842;4.410;2022-09-09T05:23:34;15.30;99.90
68139;DHT22;54940;50.842;4.410;2022-09-09T05:26:01;15.30;99.90
68139;DHT22;54940;50.842;4.410;2022-09-09T05:28:27;15.40;99.90
68139;DHT22;54940;50.842;4.410;2022-09-09T05:31:04;15.40;99.90
68139;DHT22;54940;50.842;4.410;2022-09-09T05:33:31;15.40;99.90
68139;DHT22;54940;50.842;4.410;2022-09-09T05:36:02;15.40;99.90
68139;DHT22;54940;50.842;4.410;2022-09-09T05:38:28;15.50;99.90
68139;DHT22;54940;50.842;4.410;2022-09-09T05:40:55;15.50;99.90
68139;DHT22;54940;50.842;4.410;2022-09-09T05:43:24;15.50;99.90
68139;DHT22;54940;50.842;4.410;2022-09-09T05:46:06;15.60;99.90
68139;DHT22;54940;50.842;4.410;2022-09-09T05:48:37;15.50;99.90
68139;DHT22;54940;50.842;4.410;2022-09-09T05:51:05;15.50;99.90
68139;DHT22;54940;50.842;4.410;2022-09-09T05:53:32;15.50;99.90
68139;DHT22;54940;50.842;4.410;2022-09-09T05:56:05;15.50;99.90
68139;DHT22;54940;50.842;4.410;2022-09-09T05:58:34;15.50;99.90
68139;DHT22;54940;50.842;4.410;2022-09-09T06:01:04;15.60;99.90
68139;DHT22;54940;50.842;4.410;2022-09-09T06:03:35;15.50;99.90
68139;DHT22;54940;50.842;4.410;2022-09-09T06:06:03;15.60;99.90
68139;DHT22;54940;50.842;4.410;2022-09-09T06:08:37;15.50;99.90
68139;DHT22;54940;50.842;4.410;2022-09-09T06:11:09;15.60;99.90
68139;DHT22;54940;50.842;4.410;2022-09-09T06:13:35;15.70;99.90
68139;DHT22;54940;50.842;4.410;2022-09-09T06:16:02;15.70;99.90
68139;DHT22;54940;50.842;4.410;2022-09-09T06:18:28;15.70;99.90
68139;DHT22;54940;50.842;4.410;2022-09-09T06:21:03;15.70;99.90
68139;DHT22;54940;50.842;4.410;2022-09-09T06:23:29;15.80;99.90
68139;DHT22;54940;50.842;4.410;2022-09-09T06:26:12;15.90;99.90
68139;DHT22;54940;50.842;4.410;2022-09-09T06:28:39;15.90;99.90
68139;DHT22;54940;50.842;4.410;2022-09-09T06:31:07;15.90;99.90
68139;DHT22;54940;50.842;4.410;2022-09-09T06:33:36;16.00;99.90
68139;DHT22;54940;50.842;4.410;2022-09-09T06:36:04;16.00;99.90
68139;DHT22;54940;50.842;4.410;2022-09-09T06:38:30;16.00;99.90
68139;DHT22;54940;50.842;4.410;2022-09-09T06:40:58;16.10;99.90
68139;DHT22;54940;50.842;4.410;2022-09-09T06:43:25;16.10;99.90
68139;DHT22;54940;50.842;4.410;2022-09-09T06:48:23;16.00;99.90
68139;DHT22;54940;50.842;4.410;2022-09-09T06:50:48;15.90;99.90
68139;DHT22;54940;50.842;4.410;2022-09-09T06:53:17;16.10;99.90
68139;DHT22;54940;50.842;4.410;2022-09-09T06:55:45;16.00;99.90
68139;DHT22;54940;50.842;4.410;2022-09-09T06:58:11;16.10;99.90
68139;DHT22;54940;50.842;4.410;2022-09-09T07:00:36;16.10;99.90
68139;DHT22;54940;50.842;4.410;2022-09-09T07:03:05;16.20;99.90
68139;DHT22;54940;50.842;4.410;2022-09-09T07:05:31;16.10;99.90
68139;DHT22;54940;50.842;4.410;2022-09-09T07:07:57;16.10;99.90
68139;DHT22;54940;50.842;4.410;2022-09-09T07:10:24;16.20;99.90
68139;DHT22;54940;50.842;4.410;2022-09-09T07:12:53;16.30;99.90
68139;DHT22;54940;50.842;4.410;2022-09-09T07:15:19;16.30;99.90
68139;DHT22;54940;50.842;4.410;2022-09-09T07:17:45;16.40;99.90
68139;DHT22;54940;50.842;4.410;2022-09-09T07:20:11;16.30;99.90
68139;DHT22;54940;50.842;4.410;2022-09-09T07:22:37;16.30;99.90
68139;DHT22;54940;50.842;4.410;2022-09-09T07:25:03;16.40;99.90
68139;DHT22;54940;50.842;4.410;2022-09-09T07:27:29;16.30;99.90
68139;DHT22;54940;50.842;4.410;2022-09-09T07:29:55;16.20;99.90
68139;DHT22;54940;50.842;4.410;2022-09-09T07:32:21;16.20;99.90
68139;DHT22;54940;50.842;4.410;2022-09-09T07:34:46;16.20;99.90
68139;DHT22;54940;50.842;4.410;2022-09-09T07:37:13;16.20;99.90
68139;DHT22;54940;50.842;4.410;2022-09-09T07:39:39;16.30;99.90
68139;DHT22;54940;50.842;4.410;2022-09-09T07:42:05;16.30;99.90
68139;DHT22;54940;50.842;4.410;2022-09-09T07:44:31;16.20;99.90
68139;DHT22;54940;50.842;4.410;2022-09-09T07:47:01;16.20;99.90
68139;DHT22;54940;50.842;4.410;2022-09-09T07:49:27;16.10;99.90
68139;DHT22;54940;50.842;4.410;2022-09-09T07:51:53;15.90;99.90
68139;DHT22;54940;50.842;4.410;2022-09-09T07:54:19;15.90;99.90
68139;DHT22;54940;50.842;4.410;2022-09-09T07:56:46;15.80;99.90
68139;DHT22;54940;50.842;4.410;2022-09-09T07:59:12;15.90;99.90
68139;DHT22;54940;50.842;4.410;2022-09-09T08:01:48;15.80;99.90
68139;DHT22;54940;50.842;4.410;2022-09-09T08:04:16;15.90;99.90
68139;DHT22;54940;50.842;4.410;2022-09-09T08:06:45;15.90;99.90
68139;DHT22;54940;50.842;4.410;2022-09-09T08:09:12;15.90;99.90
68139;DHT22;54940;50.842;4.410;2022-09-09T08:11:39;16.00;99.90
68139;DHT22;54940;50.842;4.410;2022-09-09T08:14:06;16.10;99.90
68139;DHT22;54940;50.842;4.410;2022-09-09T08:16:43;16.30;99.90
68139;DHT22;54940;50.842;4.410;2022-09-09T08:19:09;16.60;99.90
68139;DHT22;54940;50.842;4.410;2022-09-09T08:21:38;16.70;99.90
68139;DHT22;54940;50.842;4.410;2022-09-09T08:24:06;16.60;99.90
68139;DHT22;54940;50.842;4.410;2022-09-09T08:26:36;16.70;99.90
68139;DHT22;54940;50.842;4.410;2022-09-09T08:29:04;16.80;99.90
68139;DHT22;54940;50.842;4.410;2022-09-09T08:31:35;16.80;99.90
68139;DHT22;54940;50.842;4.410;2022-09-09T08:34:03;16.80;99.90
68139;DHT22;54940;50.842;4.410;2022-09-09T08:36:32;16.80;99.90
68139;DHT22;54940;50.842;4.410;2022-09-09T08:39:01;16.80;99.90
68139;DHT22;54940;50.842;4.410;2022-09-09T08:41:57;16.80;99.90
68139;DHT22;54940;50.842;4.410;2022-09-09T08:50:29;16.60;99.90
68139;DHT22;54940;50.842;4.410;2022-09-09T08:58:21;16.60;99.90
68139;DHT22;54940;50.842;4.410;2022-09-09T09:09:17;16.60;99.90
68139;DHT22;54940;50.842;4.410;2022-09-09T09:14:25;16.60;99.90
68139;DHT22;54940;50.842;4.410;2022-09-09T09:16:54;16.60;99.90
68139;DHT22;54940;50.842;4.410;2022-09-09T09:19:22;16.60;99.90
68139;DHT22;54940;50.842;4.410;2022-09-09T09:27:15;16.50;99.90
68139;DHT22;54940;50.842;4.410;2022-09-09T09:29:42;16.40;99.90
68139;DHT22;54940;50.842;4.410;2022-09-09T09:32:13;16.30;99.90
68139;DHT22;54940;50.842;4.410;2022-09-09T09:34:39;16.30;99.90
68139;DHT22;54940;50.842;4.410;2022-09-09T09:37:23;16.30;99.90
68139;DHT22;54940;50.842;4.410;2022-09-09T09:39:53;16.30;99.90
68139;DHT22;54940;50.842;4.410;2022-09-09T09:42:19;16.30;99.90
68139;DHT22;54940;50.842;4.410;2022-09-09T09:44:45;16.30;99.90
68139;DHT22;54940;50.842;4.410;2022-09-09T09:47:16;16.20;99.90
68139;DHT22;54940;50.842;4.410;2022-09-09T09:49:56;16.20;99.90
68139;DHT22;54940;50.842;4.410;2022-09-09T09:52:26;16.30;99.90
68139;DHT22;54940;50.842;4.410;2022-09-09T09:54:53;16.30;99.90
68139;DHT22;54940;50.842;4.410;2022-09-09T09:57:27;16.20;99.90
68139;DHT22;54940;50.842;4.410;2022-09-09T10:02:40;16.20;99.90
68139;DHT22;54940;50.842;4.410;2022-09-09T10:05:30;16.30;99.90
68139;DHT22;54940;50.842;4.410;2022-09-09T10:11:16;16.50;99.90
68139;DHT22;54940;50.842;4.410;2022-09-09T10:13:56;16.60;99.90
68139;DHT22;54940;50.842;4.410;2022-09-09T10:16:40;16.60;99.90
68139;DHT22;54940;50.842;4.410;2022-09-09T10:19:15;16.70;99.90
68139;DHT22;54940;50.842;4.410;2022-09-09T10:40:34;17.10;99.90
68139;DHT22;54940;50.842;4.410;2022-09-09T10:46:01;17.40;99.90
68139;DHT22;54940;50.842;4.410;2022-09-09T10:56:38;17.30;99.90
68139;DHT22;54940;50.842;4.410;2022-09-09T10:59:20;17.20;99.90
68139;DHT22;54940;50.842;4.410;2022-09-09T11:01:56;17.30;99.90
68139;DHT22;54940;50.842;4.410;2022-09-09T11:04:40;17.50;99.90
68139;DHT22;54940;50.842;4.410;2022-09-09T11:07:10;17.60;99.90
68139;DHT22;54940;50.842;4.410;2022-09-09T11:09:44;17.70;99.90
68139;DHT22;54940;50.842;4.410;2022-09-09T11:12:17;17.70;99.90
68139;DHT22;54940;50.842;4.410;2022-09-09T11:15:01;17.80;99.90
68139;DHT22;54940;50.842;4.410;2022-09-09T11:17:58;17.80;99.90
68139;DHT22;54940;50.842;4.410;2022-09-09T11:20:26;17.90;99.90
68139;DHT22;54940;50.842;4.410;2022-09-09T11:25:25;18.10;99.90
68139;DHT22;54940;50.842;4.410;2022-09-09T11:30:50;18.10;99.90
68139;DHT22;54940;50.842;4.410;2022-09-09T11:33:41;18.00;99.90
68139;DHT22;54940;50.842;4.410;2022-09-09T11:41:49;17.90;99.90
68139;DHT22;54940;50.842;4.410;2022-09-09T11:44:28;17.90;99.90
68139;DHT22;54940;50.842;4.410;2022-09-09T11:46:55;17.90;99.90
68139;DHT22;54940;50.842;4.410;2022-09-09T11:49:40;17.80;99.90
68139;DHT22;54940;50.842;4.410;2022-09-09T11:52:22;17.80;99.90
68139;DHT22;54940;50.842;4.410;2022-09-09T11:54:49;17.80;99.90
68139;DHT22;54940;50.842;4.410;2022-09-09T11:57:36;17.90;99.90
68139;DHT22;54940;50.842;4.410;2022-09-09T12:00:03;18.00;99.90
68139;DHT22;54940;50.842;4.410;2022-09-09T12:02:29;18.10;99.90
68139;DHT22;54940;50.842;4.410;2022-09-09T12:05:05;18.00;99.90
68139;DHT22;54940;50.842;4.410;2022-09-09T12:07:50;17.90;99.90
68139;DHT22;54940;50.842;4.410;2022-09-09T12:10:23;17.90;99.90
68139;DHT22;54940;50.842;4.410;2022-09-09T12:12:51;17.90;99.90
68139;DHT22;54940;50.842;4.410;2022-09-09T12:15:24;17.90;99.90
68139;DHT22;54940;50.842;4.410;2022-09-09T12:17:53;17.90;99.90
68139;DHT22;54940;50.842;4.410;2022-09-09T12:22:51;17.90;99.90
68139;DHT22;54940;50.842;4.410;2022-09-09T12:31:06;17.80;99.90
68139;DHT22;54940;50.842;4.410;2022-09-09T12:33:35;17.90;99.90
68139;DHT22;54940;50.842;4.410;2022-09-09T12:36:03;18.00;99.90
68139;DHT22;54940;50.842;4.410;2022-09-09T12:38:37;18.10;99.90
68139;DHT22;54940;50.842;4.410;2022-09-09T12:41:04;18.30;99.90
68139;DHT22;54940;50.842;4.410;2022-09-09T12:43:30;18.40;99.90
68139;DHT22;54940;50.842;4.410;2022-09-09T12:46:00;18.50;99.90
68139;DHT22;54940;50.842;4.410;2022-09-09T12:48:38;18.50;99.90
68139;DHT22;54940;50.842;4.410;2022-09-09T12:51:16;18.50;99.90
68139;DHT22;54940;50.842;4.410;2022-09-09T12:53:44;18.70;99.90
68139;DHT22;54940;50.842;4.410;2022-09-09T12:56:19;18.80;99.90
68139;DHT22;54940;50.842;4.410;2022-09-09T12:58:48;18.80;99.90
68139;DHT22;54940;50.842;4.410;2022-09-09T13:01:27;18.80;99.90
68139;DHT22;54940;50.842;4.410;2022-09-09T13:03:54;18.80;99.90
68139;DHT22;54940;50.842;4.410;2022-09-09T13:06:25;18.80;99.90
68139;DHT22;54940;50.842;4.410;2022-09-09T13:08:53;18.90;99.90
68139;DHT22;54940;50.842;4.410;2022-09-09T13:11:32;19.00;99.90
68139;DHT22;54940;50.842;4.410;2022-09-09T13:14:01;19.00;99.90
68139;DHT22;54940;50.842;4.410;2022-09-09T13:16:29;19.00;99.90
68139;DHT22;54940;50.842;4.410;2022-09-09T13:18:59;19.00;99.90
68139;DHT22;54940;50.842;4.410;2022-09-09T13:21:33;19.00;99.90
68139;DHT22;54940;50.842;4.410;2022-09-09T13:24:03;18.90;99.90
68139;DHT22;54940;50.842;4.410;2022-09-09T13:26:29;18.90;99.90
68139;DHT22;54940;50.842;4.410;2022-09-09T13:29:07;18.90;99.90
68139;DHT22;54940;50.842;4.410;2022-09-09T13:31:36;19.00;99.90
68139;DHT22;54940;50.842;4.410;2022-09-09T13:34:29;19.10;99.90
68139;DHT22;54940;50.842;4.410;2022-09-09T13:37:03;19.20;99.90
68139;DHT22;54940;50.842;4.410;2022-09-09T13:39:33;19.40;99.90
68139;DHT22;54940;50.842;4.410;2022-09-09T13:41:59;19.60;99.90
68139;DHT22;54940;50.842;4.410;2022-09-09T13:44:31;19.60;99.90
68139;DHT22;54940;50.842;4.410;2022-09-09T13:49:34;19.60;99.90
68139;DHT22;54940;50.842;4.410;2022-09-09T13:52:11;19.60;99.90
68139;DHT22;54940;50.842;4.410;2022-09-09T13:54:37;19.60;99.90
68139;DHT22;54940;50.842;4.410;2022-09-09T13:57:03;19.60;99.90
68139;DHT22;54940;50.842;4.410;2022-09-09T13:59:30;19.70;99.90
68139;DHT22;54940;50.842;4.410;2022-09-09T14:01:57;19.70;99.90
68139;DHT22;54940;50.842;4.410;2022-09-09T14:04:22;19.60;99.90
68139;DHT22;54940;50.842;4.410;2022-09-09T14:06:49;19.60;99.90
68139;DHT22;54940;50.842;4.410;2022-09-09T14:09:17;19.60;99.90
68139;DHT22;54940;50.842;4.410;2022-09-09T14:11:44;19.80;99.90
68139;DHT22;54940;50.842;4.410;2022-09-09T14:14:10;20.00;99.90
68139;DHT22;54940;50.842;4.410;2022-09-09T14:16:36;19.90;99.90
68139;DHT22;54940;50.842;4.410;2022-09-09T14:19:03;19.80;99.90
68139;DHT22;54940;50.842;4.410;2022-09-09T14:21:29;19.70;99.90
68139;DHT22;54940;50.842;4.410;2022-09-09T14:23:54;19.70;99.90
68139;DHT22;54940;50.842;4.410;2022-09-09T14:26:21;19.50;99.90
68139;DHT22;54940;50.842;4.410;2022-09-09T14:28:47;19.50;99.90
68139;DHT22;54940;50.842;4.410;2022-09-09T14:31:14;19.40;99.90
68139;DHT22;54940;50.842;4.410;2022-09-09T14:33:40;19.40;99.90
68139;DHT22;54940;50.842;4.410;2022-09-09T14:36:06;19.40;99.90
68139;DHT22;54940;50.842;4.410;2022-09-09T14:38:34;19.30;99.90
68139;DHT22;54940;50.842;4.410;2022-09-09T14:41:05;19.60;99.90
68139;DHT22;54940;50.842;4.410;2022-09-09T14:43:31;19.60;99.90
68139;DHT22;54940;50.842;4.410;2022-09-09T14:46:04;19.70;99.90
68139;DHT22;54940;50.842;4.410;2022-09-09T14:48:31;19.60;99.90
68139;DHT22;54940;50.842;4.410;2022-09-09T14:50:56;19.60;99.90
68139;DHT22;54940;50.842;4.410;2022-09-09T14:53:22;19.50;99.90
68139;DHT22;54940;50.842;4.410;2022-09-09T14:55:48;19.60;99.90
68139;DHT22;54940;50.842;4.410;2022-09-09T14:58:14;19.70;99.90
68139;DHT22;54940;50.842;4.410;2022-09-09T15:00:40;19.60;99.90
68139;DHT22;54940;50.842;4.410;2022-09-09T15:03:06;19.70;99.90
68139;DHT22;54940;50.842;4.410;2022-09-09T15:05:32;19.80;99.90
68139;DHT22;54940;50.842;4.410;2022-09-09T15:07:57;19.80;99.90
68139;DHT22;54940;50.842;4.410;2022-09-09T15:10:24;19.80;99.90
68139;DHT22;54940;50.842;4.410;2022-09-09T15:12:49;19.70;99.90
68139;DHT22;54940;50.842;4.410;2022-09-09T15:15:15;19.80;99.90
68139;DHT22;54940;50.842;4.410;2022-09-09T15:17:41;19.80;99.90
68139;DHT22;54940;50.842;4.410;2022-09-09T15:20:07;19.90;99.90
68139;DHT22;54940;50.842;4.410;2022-09-09T15:22:33;19.80;99.90
68139;DHT22;54940;50.842;4.410;2022-09-09T15:24:59;19.80;99.90
68139;DHT22;54940;50.842;4.410;2022-09-09T15:27:24;19.80;99.90
68139;DHT22;54940;50.842;4.410;2022-09-09T15:29:50;19.90;99.90
68139;DHT22;54940;50.842;4.410;2022-09-09T15:32:18;19.90;99.90
68139;DHT22;54940;50.842;4.410;2022-09-09T15:34:43;19.80;99.90
68139;DHT22;54940;50.842;4.410;2022-09-09T15:37:12;19.70;99.90
68139;DHT22;54940;50.842;4.410;2022-09-09T15:39:39;19.70;99.90
68139;DHT22;54940;50.842;4.410;2022-09-09T15:42:05;19.60;99.90
68139;DHT22;54940;50.842;4.410;2022-09-09T15:44:39;19.50;99.90
68139;DHT22;54940;50.842;4.410;2022-09-09T15:47:04;19.50;99.90
68139;DHT22;54940;50.842;4.410;2022-09-09T15:49:30;19.40;99.90
68139;DHT22;54940;50.842;4.410;2022-09-09T15:51:58;19.50;99.90
68139;DHT22;54940;50.842;4.410;2022-09-09T15:54:25;19.50;99.90
68139;DHT22;54940;50.842;4.410;2022-09-09T15:56:56;19.50;99.90
68139;DHT22;54940;50.842;4.410;2022-09-09T15:59:26;19.50;99.90
68139;DHT22;54940;50.842;4.410;2022-09-09T16:01:53;19.60;99.90
68139;DHT22;54940;50.842;4.410;2022-09-09T16:04:21;19.50;99.90
68139;DHT22;54940;50.842;4.410;2022-09-09T16:06:54;19.50;99.90
68139;DHT22;54940;50.842;4.410;2022-09-09T16:09:21;19.40;99.90
68139;DHT22;54940;50.842;4.410;2022-09-09T16:11:47;19.40;99.90
68139;DHT22;54940;50.842;4.410;2022-09-09T16:14:14;19.20;99.90
68139;DHT22;54940;50.842;4.410;2022-09-09T16:16:41;19.20;99.90
68139;DHT22;54940;50.842;4.410;2022-09-09T16:19:10;19.20;99.90
68139;DHT22;54940;50.842;4.410;2022-09-09T16:21:39;19.20;99.90
68139;DHT22;54940;50.842;4.410;2022-09-09T16:24:07;19.10;99.90
68139;DHT22;54940;50.842;4.410;2022-09-09T16:26:34;19.10;99.90
68139;DHT22;54940;50.842;4.410;2022-09-09T16:29:01;19.10;99.90
68139;DHT22;54940;50.842;4.410;2022-09-09T16:31:28;19.10;99.90
68139;DHT22;54940;50.842;4.410;2022-09-09T16:33:55;19.00;99.90
68139;DHT22;54940;50.842;4.410;2022-09-09T16:36:23;18.60;99.90
68139;DHT22;54940;50.842;4.410;2022-09-09T16:38:55;18.40;99.90
68139;DHT22;54940;50.842;4.410;2022-09-09T16:41:23;18.40;99.90
68139;DHT22;54940;50.842;4.410;2022-09-09T16:43:53;18.30;99.90
68139;DHT22;54940;50.842;4.410;2022-09-09T16:46:20;18.30;99.90
68139;DHT22;54940;50.842;4.410;2022-09-09T16:48:46;18.20;99.90
68139;DHT22;54940;50.842;4.410;2022-09-09T16:51:18;18.20;99.90
68139;DHT22;54940;50.842;4.410;2022-09-09T16:53:44;18.20;99.90
68139;DHT22;54940;50.842;4.410;2022-09-09T16:56:15;18.30;99.90
68139;DHT22;54940;50.842;4.410;2022-09-09T16:58:42;18.30;99.90
68139;DHT22;54940;50.842;4.410;2022-09-09T17:01:11;18.30;99.90
68139;DHT22;54940;50.842;4.410;2022-09-09T17:03:40;18.30;99.90
68139;DHT22;54940;50.842;4.410;2022-09-09T17:06:10;18.30;99.90
68139;DHT22;54940;50.842;4.410;2022-09-09T17:08:37;18.30;99.90
68139;DHT22;54940;50.842;4.410;2022-09-09T17:11:03;18.30;99.90
68139;DHT22;54940;50.842;4.410;2022-09-09T17:13:29;18.30;99.90
68139;DHT22;54940;50.842;4.410;2022-09-09T17:15:55;18.20;99.90
68139;DHT22;54940;50.842;4.410;2022-09-09T17:18:21;18.20;99.90
68139;DHT22;54940;50.842;4.410;2022-09-09T17:20:47;18.20;99.90
68139;DHT22;54940;50.842;4.410;2022-09-09T17:23:13;18.10;99.90
68139;DHT22;54940;50.842;4.410;2022-09-09T17:25:41;18.10;99.90
68139;DHT22;54940;50.842;4.410;2022-09-09T17:28:06;18.00;99.90
68139;DHT22;54940;50.842;4.410;2022-09-09T17:30:35;17.90;99.90
68139;DHT22;54940;50.842;4.410;2022-09-09T17:33:05;17.90;99.90
68139;DHT22;54940;50.842;4.410;2022-09-09T17:35:32;17.90;99.90
68139;DHT22;54940;50.842;4.410;2022-09-09T17:37:59;17.90;99.90
68139;DHT22;54940;50.842;4.410;2022-09-09T17:40:24;17.90;99.90
68139;DHT22;54940;50.842;4.410;2022-09-09T17:42:50;17.80;99.90
68139;DHT22;54940;50.842;4.410;2022-09-09T17:45:16;17.80;99.90
68139;DHT22;54940;50.842;4.410;2022-09-09T17:47:42;17.80;99.90
68139;DHT22;54940;50.842;4.410;2022-09-09T17:50:09;17.80;99.90
68139;DHT22;54940;50.842;4.410;2022-09-09T17:52:36;17.70;99.90
68139;DHT22;54940;50.842;4.410;2022-09-09T17:55:03;17.70;99.90
68139;DHT22;54940;50.842;4.410;2022-09-09T17:57:29;17.60;99.90
68139;DHT22;54940;50.842;4.410;2022-09-09T17:59:54;17.60;99.90